Wetterdaten: Woche 03.06.13 - 09.06.13 (KW23)
Datum Zeit Temp. A. Feuchte A. Luftdruck Regen Wind Richtung Taupunkt Windchill Windben
03.06.2013 00:00 10,5 C 81 % 1015,1 hPa 0,0 l/m 11,3 km/h N 7,3 C 7,5 C 33,4 km/h
03.06.2013 01:00 10,4 C 80 % 1014,8 hPa 0,0 l/m 17,8 km/h N 7,0 C 4,5 C 44,7 km/h
03.06.2013 02:00 10,3 C 79 % 1014,8 hPa 0,0 l/m 17,6 km/h N 6,8 C 4,6 C 44,7 km/h
03.06.2013 03:00 10,3 C 79 % 1014,9 hPa 0,0 l/m 13,9 km/h N 6,8 C 6,0 C 39,0 km/h
03.06.2013 04:00 10,7 C 79 % 1015,2 hPa 0,0 l/m 14,0 km/h N 7,2 C 6,4 C 35,8 km/h
03.06.2013 05:00 10,7 C 79 % 1015,6 hPa 0,0 l/m 16,1 km/h N 7,2 C 5,6 C 41,4 km/h
03.06.2013 06:00 10,7 C 79 % 1015,5 hPa 0,0 l/m 18,1 km/h N 7,2 C 4,8 C 42,6 km/h
03.06.2013 07:00 11,1 C 79 % 1016,0 hPa 0,0 l/m 13,3 km/h N 7,5 C 7,2 C 34,6 km/h
03.06.2013 08:00 11,5 C 77 % 1016,2 hPa 0,0 l/m 18,3 km/h N 7,5 C 5,8 C 41,4 km/h
03.06.2013 09:00 11,9 C 76 % 1016,0 hPa 0,0 l/m 17,4 km/h N 7,7 C 6,5 C 40,7 km/h
03.06.2013 10:00 11,9 C 75 % 1016,0 hPa 0,0 l/m 18,3 km/h N 7,6 C 6,3 C 41,0 km/h
03.06.2013 11:00 11,9 C 76 % 1016,5 hPa 0,0 l/m 16,7 km/h N 7,8 C 6,9 C 35,4 km/h
03.06.2013 12:00 11,6 C 77 % 1016,1 hPa 0,0 l/m 19,0 km/h N 7,8 C 5,7 C 44,7 km/h
03.06.2013 13:00 11,8 C 78 % 1016,1 hPa 0,0 l/m 18,6 km/h N 8,0 C 6,1 C 40,7 km/h
03.06.2013 14:00 11,8 C 79 % 1016,1 hPa 0,3 l/m 15,2 km/h N 8,3 C 7,2 C 36,2 km/h
03.06.2013 15:00 11,3 C 81 % 1016,2 hPa 0,0 l/m 17,3 km/h N 8,2 C 5,9 C 42,3 km/h
03.06.2013 16:00 11,3 C 80 % 1016,3 hPa 0,3 l/m 20,9 km/h N 7,9 C 4,7 C 41,8 km/h
03.06.2013 17:00 11,1 C 81 % 1016,3 hPa 0,0 l/m 15,3 km/h N 7,8 C 6,3 C 40,6 km/h
03.06.2013 18:00 10,5 C 82 % 1016,3 hPa 0,8 l/m 16,4 km/h N 7,5 C 5,2 C 40,2 km/h
03.06.2013 19:00 10,2 C 82 % 1016,5 hPa 0,5 l/m 14,1 km/h N 7,3 C 5,8 C 37,4 km/h
03.06.2013 20:00 10,1 C 81 % 1016,4 hPa 0,3 l/m 17,9 km/h N 7,0 C 4,2 C 39,4 km/h
03.06.2013 21:00 10,1 C 80 % 1016,6 hPa 0,0 l/m 18,8 km/h N 6,8 C 3,8 C 43,0 km/h
03.06.2013 22:00 9,7 C 81 % 1016,9 hPa 0,0 l/m 16,6 km/h N 6,6 C 4,1 C 40,2 km/h
03.06.2013 23:00 9,7 C 80 % 1017,1 hPa 0,0 l/m 16,1 km/h N 6,3 C 4,3 C 38,3 km/h
04.06.2013 00:00 9,7 C 80 % 1016,9 hPa 0,0 l/m 18,1 km/h N 6,4 C 3,6 C 43,4 km/h
04.06.2013 01:00 9,6 C 80 % 1016,4 hPa 0,0 l/m 18,6 km/h N 6,3 C 3,3 C 42,2 km/h
04.06.2013 02:00 9,6 C 80 % 1015,9 hPa 0,0 l/m 19,8 km/h N 6,4 C 2,8 C 45,0 km/h
04.06.2013 03:00 9,6 C 81 % 1015,6 hPa 0,0 l/m 17,7 km/h N 6,4 C 3,6 C 42,7 km/h
04.06.2013 04:00 9,5 C 81 % 1015,5 hPa 0,0 l/m 17,3 km/h N 6,4 C 3,7 C 39,2 km/h
04.06.2013 05:00 9,5 C 82 % 1015,5 hPa 0,0 l/m 15,0 km/h N 6,6 C 4,6 C 37,4 km/h
04.06.2013 06:00 9,5 C 83 % 1015,3 hPa 0,5 l/m 15,0 km/h N 6,8 C 4,5 C 35,0 km/h
04.06.2013 07:00 10,0 C 82 % 1015,3 hPa 0,0 l/m 15,3 km/h N 7,0 C 5,0 C 33,8 km/h
04.06.2013 08:00 10,1 C 83 % 1015,3 hPa 0,3 l/m 12,8 km/h N 7,3 C 6,2 C 33,0 km/h
04.06.2013 09:00 10,2 C 84 % 1015,4 hPa 0,3 l/m 14,4 km/h N 7,6 C 5,7 C 32,2 km/h
04.06.2013 10:00 10,9 C 83 % 1015,2 hPa 0,3 l/m 14,9 km/h N 8,1 C 6,3 C 35,4 km/h
04.06.2013 11:00 11,4 C 81 % 1015,3 hPa 0,0 l/m 14,1 km/h N 8,4 C 7,3 C 34,2 km/h
04.06.2013 12:00 12,6 C 78 % 1015,4 hPa 0,0 l/m 17,4 km/h N 8,9 C 7,4 C 39,4 km/h
04.06.2013 13:00 12,9 C 76 % 1015,0 hPa 0,0 l/m 12,6 km/h N 8,8 C 9,7 C 33,4 km/h
04.06.2013 14:00 13,3 C 76 % 1015,0 hPa 0,0 l/m 10,2 km/h N 9,1 C 11,2 C 31,4 km/h
04.06.2013 15:00 12,5 C 78 % 1015,3 hPa 0,0 l/m 11,0 km/h N 8,7 C 9,9 C 28,6 km/h
04.06.2013 16:00 12,5 C 78 % 1015,2 hPa 0,0 l/m 8,8 km/h N 8,8 C 11,1 C 25,7 km/h
04.06.2013 17:00 12,6 C 78 % 1015,2 hPa 0,0 l/m 12,1 km/h N 8,8 C 9,5 C 26,3 km/h
04.06.2013 18:00 12,7 C 78 % 1015,1 hPa 0,0 l/m 13,9 km/h N 8,9 C 8,8 C 33,0 km/h
04.06.2013 19:00 12,6 C 80 % 1015,2 hPa 0,0 l/m 11,6 km/h N 9,1 C 9,8 C 28,6 km/h
04.06.2013 20:00 12,6 C 80 % 1015,2 hPa 0,0 l/m 14,0 km/h N 9,3 C 8,7 C 34,2 km/h
04.06.2013 21:00 12,5 C 82 % 1015,8 hPa 0,0 l/m 12,0 km/h N 9,5 C 9,4 C 27,0 km/h
04.06.2013 22:00 12,7 C 82 % 1016,1 hPa 0,0 l/m 11,1 km/h N 9,6 C 10,1 C 27,3 km/h
04.06.2013 23:00 12,6 C 83 % 1016,1 hPa 0,0 l/m 10,6 km/h N 9,9 C 10,2 C 25,3 km/h
05.06.2013 00:00 12,2 C 84 % 1016,0 hPa 0,3 l/m 8,8 km/h N 9,5 C 10,8 C 25,4 km/h
05.06.2013 01:00 12,3 C 84 % 1015,8 hPa 0,3 l/m 7,4 km/h N 9,6 C 11,6 C 20,5 km/h
05.06.2013 02:00 12,4 C 84 % 1015,8 hPa 0,5 l/m 6,5 km/h N 9,7 C 12,1 C 20,9 km/h
05.06.2013 03:00 12,5 C 83 % 1015,7 hPa 0,3 l/m 6,8 km/h N 9,6 C 12,2 C 19,7 km/h
05.06.2013 04:00 12,6 C 83 % 1015,5 hPa 0,0 l/m 5,9 km/h N 9,7 C 12,5 C 18,5 km/h
05.06.2013 05:00 12,8 C 83 % 1015,6 hPa 0,0 l/m 5,1 km/h N 9,9 C 12,8 C 13,7 km/h
05.06.2013 06:00 12,8 C 83 % 1016,0 hPa 0,0 l/m 6,1 km/h N 10,0 C 12,6 C 16,5 km/h
05.06.2013 07:00 12,8 C 82 % 1016,4 hPa 0,3 l/m 5,7 km/h N 9,8 C 12,6 C 16,5 km/h
05.06.2013 08:00 12,7 C 83 % 1016,9 hPa 0,3 l/m 5,7 km/h N 9,8 C 12,7 C 15,3 km/h
05.06.2013 09:00 13,1 C 84 % 1017,1 hPa 0,0 l/m 6,3 km/h N 10,3 C 13,0 C 16,5 km/h
05.06.2013 10:00 14,0 C 84 % 1017,0 hPa 0,0 l/m 6,4 km/h N 11,2 C 13,7 C 19,7 km/h
05.06.2013 11:00 14,9 C 81 % 1017,0 hPa 0,0 l/m 7,3 km/h N 11,7 C 14,3 C 18,9 km/h
05.06.2013 12:00 15,1 C 81 % 1017,0 hPa 0,0 l/m 4,2 km/h N 11,9 C 15,1 C 12,5 km/h
05.06.2013 13:00 15,5 C 80 % 1017,1 hPa 0,0 l/m 5,1 km/h N 11,9 C 15,5 C 15,3 km/h
05.06.2013 14:00 15,6 C 80 % 1017,1 hPa 0,0 l/m 4,0 km/h N 12,2 C 15,6 C 12,9 km/h
05.06.2013 15:00 16,5 C 79 % 1017,0 hPa 0,0 l/m 3,6 km/h N 12,8 C 16,5 C 10,9 km/h
05.06.2013 16:00 16,3 C 80 % 1016,9 hPa 0,0 l/m 2,8 km/h N 12,7 C 16,3 C 10,9 km/h
05.06.2013 17:00 15,7 C 83 % 1016,9 hPa 0,0 l/m 3,2 km/h N 12,8 C 15,7 C 9,7 km/h
05.06.2013 18:00 16,3 C 79 % 1016,9 hPa 0,0 l/m 4,5 km/h N 12,7 C 16,3 C 14,1 km/h
05.06.2013 19:00 16,1 C 79 % 1017,1 hPa 0,0 l/m 3,0 km/h N 12,4 C 16,1 C 9,3 km/h
05.06.2013 20:00 15,5 C 81 % 1017,5 hPa 0,0 l/m 2,6 km/h N 12,1 C 15,5 C 9,3 km/h
05.06.2013 21:00 14,8 C 81 % 1018,3 hPa 0,0 l/m 0,9 km/h N 11,6 C 14,8 C 6,8 km/h
05.06.2013 22:00 14,3 C 83 % 1018,5 hPa 0,0 l/m 0,4 km/h N 11,3 C 14,3 C 4,4 km/h
05.06.2013 23:00 13,8 C 84 % 1018,7 hPa 0,0 l/m 0,9 km/h N 11,1 C 13,8 C 5,6 km/h
06.06.2013 00:00 13,4 C 83 % 1019,1 hPa 0,0 l/m 2,0 km/h N 10,5 C 13,4 C 8,9 km/h
06.06.2013 01:00 13,3 C 83 % 1019,0 hPa 0,0 l/m 0,1 km/h N 10,5 C 13,3 C 2,4 km/h
06.06.2013 02:00 12,9 C 84 % 1018,6 hPa 0,0 l/m 0,4 km/h N 10,3 C 12,9 C 4,4 km/h
06.06.2013 03:00 12,6 C 84 % 1018,4 hPa 0,0 l/m 1,1 km/h N 9,9 C 12,6 C 6,8 km/h
06.06.2013 04:00 12,4 C 84 % 1018,5 hPa 0,0 l/m 1,9 km/h N 9,8 C 12,4 C 7,6 km/h
06.06.2013 05:00 12,2 C 84 % 1018,9 hPa 0,0 l/m 1,2 km/h N 9,5 C 12,2 C 6,4 km/h
06.06.2013 06:00 12,2 C 84 % 1019,3 hPa 0,0 l/m 1,1 km/h N 9,5 C 12,2 C 6,0 km/h
06.06.2013 07:00 12,4 C 84 % 1019,5 hPa 0,0 l/m 3,4 km/h N 9,7 C 12,4 C 11,7 km/h
06.06.2013 08:00 13,3 C 84 % 1019,9 hPa 0,0 l/m 4,1 km/h N 10,5 C 13,3 C 12,5 km/h
06.06.2013 09:00 14,4 C 81 % 1019,8 hPa 0,0 l/m 5,2 km/h N 11,2 C 14,4 C 14,9 km/h
06.06.2013 10:00 14,9 C 79 % 1019,8 hPa 0,0 l/m 5,6 km/h N 11,3 C 14,9 C 16,1 km/h
06.06.2013 11:00 15,7 C 78 % 1019,9 hPa 0,0 l/m 6,6 km/h N 11,8 C 15,5 C 17,7 km/h
06.06.2013 12:00 16,1 C 77 % 1020,0 hPa 0,0 l/m 7,1 km/h N 12,1 C 15,6 C 20,9 km/h
06.06.2013 13:00 16,8 C 75 % 1019,9 hPa 0,0 l/m 7,9 km/h N 12,2 C 16,0 C 20,9 km/h
06.06.2013 14:00 17,5 C 73 % 1019,7 hPa 0,0 l/m 7,2 km/h N 12,6 C 17,1 C 18,9 km/h
06.06.2013 15:00 18,3 C 70 % 1019,4 hPa 0,0 l/m 7,4 km/h N 12,7 C 17,8 C 18,9 km/h
06.06.2013 16:00 18,3 C 70 % 1019,4 hPa 0,0 l/m 7,7 km/h N 12,6 C 17,7 C 20,1 km/h
06.06.2013 17:00 18,4 C 70 % 1019,0 hPa 0,0 l/m 7,3 km/h N 12,8 C 18,0 C 18,5 km/h
06.06.2013 18:00 19,0 C 69 % 1018,3 hPa 0,0 l/m 5,3 km/h N 13,1 C 19,0 C 14,1 km/h
06.06.2013 19:00 18,9 C 69 % 1018,5 hPa 0,0 l/m 4,6 km/h N 12,9 C 18,9 C 14,9 km/h
06.06.2013 20:00 17,9 C 72 % 1018,5 hPa 0,0 l/m 2,7 km/h N 12,8 C 17,9 C 9,6 km/h
06.06.2013 21:00 16,4 C 76 % 1018,7 hPa 0,0 l/m 0,3 km/h N 12,2 C 16,4 C 4,8 km/h
06.06.2013 22:00 15,4 C 79 % 1019,0 hPa 0,0 l/m 0,7 km/h N 11,8 C 15,4 C 6,4 km/h
06.06.2013 23:00 15,6 C 79 % 1019,1 hPa 0,0 l/m 2,5 km/h N 12,0 C 15,6 C 8,9 km/h
07.06.2013 00:00 16,2 C 77 % 1019,1 hPa 0,0 l/m 4,2 km/h N 12,2 C 16,2 C 13,7 km/h
07.06.2013 01:00 15,8 C 78 % 1019,0 hPa 0,0 l/m 2,3 km/h N 12,0 C 15,8 C 9,6 km/h
07.06.2013 02:00 14,8 C 81 % 1019,1 hPa 0,0 l/m 1,1 km/h N 11,5 C 14,8 C 6,4 km/h
07.06.2013 03:00 14,1 C 83 % 1018,7 hPa 0,0 l/m 1,0 km/h N 11,3 C 14,1 C 6,8 km/h
07.06.2013 04:00 13,9 C 84 % 1018,7 hPa 0,0 l/m 0,9 km/h N 11,1 C 13,9 C 6,9 km/h
07.06.2013 05:00 14,1 C 83 % 1018,6 hPa 0,0 l/m 2,1 km/h N 11,2 C 14,1 C 10,5 km/h
07.06.2013 06:00 14,5 C 83 % 1018,6 hPa 0,0 l/m 2,5 km/h N 11,6 C 14,5 C 10,1 km/h
07.06.2013 07:00 15,2 C 84 % 1018,8 hPa 0,0 l/m 3,6 km/h N 12,4 C 15,2 C 10,9 km/h
07.06.2013 08:00 16,2 C 81 % 1019,0 hPa 0,0 l/m 5,4 km/h N 13,0 C 16,2 C 15,7 km/h
07.06.2013 09:00 17,2 C 79 % 1019,1 hPa 0,0 l/m 4,5 km/h N 13,5 C 17,2 C 12,9 km/h
07.06.2013 10:00 18,2 C 78 % 1018,9 hPa 0,0 l/m 5,9 km/h N 14,2 C 18,1 C 15,3 km/h
07.06.2013 11:00 18,9 C 74 % 1018,9 hPa 0,0 l/m 5,8 km/h N 14,1 C 18,9 C 16,1 km/h
07.06.2013 12:00 20,4 C 67 % 1018,7 hPa 0,0 l/m 6,3 km/h N 14,1 C 20,2 C 18,1 km/h
07.06.2013 13:00 20,4 C 67 % 1018,6 hPa 0,0 l/m 5,7 km/h N 14,1 C 20,3 C 17,3 km/h
07.06.2013 14:00 20,8 C 68 % 1018,2 hPa 0,0 l/m 4,7 km/h N 14,6 C 20,8 C 12,9 km/h
07.06.2013 15:00 21,7 C 64 % 1017,5 hPa 0,0 l/m 5,8 km/h N 14,7 C 21,7 C 16,5 km/h
07.06.2013 16:00 22,4 C 61 % 1016,9 hPa 0,0 l/m 6,2 km/h N 14,6 C 22,4 C 15,7 km/h
07.06.2013 17:00 22,6 C 62 % 1016,5 hPa 0,0 l/m 5,7 km/h N 15,0 C 22,6 C 16,1 km/h
07.06.2013 18:00 22,5 C 63 % 1016,2 hPa 0,0 l/m 6,0 km/h N 15,1 C 22,4 C 17,3 km/h
07.06.2013 19:00 21,7 C 64 % 1016,4 hPa 0,0 l/m 4,8 km/h N 14,5 C 21,7 C 14,9 km/h
07.06.2013 20:00 20,5 C 67 % 1016,4 hPa 0,0 l/m 2,0 km/h N 14,0 C 20,5 C 7,6 km/h
07.06.2013 21:00 18,5 C 74 % 1016,8 hPa 0,0 l/m 0,1 km/h N 13,7 C 18,5 C 2,4 km/h
07.06.2013 22:00 16,3 C 80 % 1017,3 hPa 0,0 l/m 0,0 km/h N 12,7 C 16,3 C 0,0 km/h
07.06.2013 23:00 15,1 C 83 % 1017,1 hPa 0,0 l/m 0,0 km/h N 12,1 C 15,1 C 0,0 km/h
08.06.2013 00:00 14,8 C 83 % 1016,9 hPa 0,0 l/m 0,0 km/h N 12,0 C 14,8 C 0,0 km/h
08.06.2013 01:00 14,0 C 83 % 1016,6 hPa 0,0 l/m 0,0 km/h N 11,2 C 14,0 C 0,0 km/h
08.06.2013 02:00 13,7 C 83 % 1016,3 hPa 0,0 l/m 0,1 km/h N 10,8 C 13,7 C 2,0 km/h
08.06.2013 03:00 13,9 C 82 % 1016,0 hPa 0,0 l/m 0,0 km/h N 10,9 C 13,9 C 0,4 km/h
08.06.2013 04:00 13,6 C 82 % 1015,6 hPa 0,0 l/m 0,0 km/h N 10,5 C 13,6 C 0,4 km/h
08.06.2013 05:00 13,8 C 80 % 1016,1 hPa 0,0 l/m 0,2 km/h N 10,4 C 13,8 C 2,4 km/h
08.06.2013 06:00 14,4 C 79 % 1016,2 hPa 0,0 l/m 0,9 km/h N 10,9 C 14,4 C 6,0 km/h
08.06.2013 07:00 16,7 C 82 % 1016,1 hPa 0,0 l/m 4,3 km/h N 13,6 C 16,7 C 12,9 km/h
08.06.2013 08:00 18,5 C 80 % 1016,2 hPa 0,0 l/m 5,1 km/h N 14,9 C 18,5 C 15,7 km/h
08.06.2013 09:00 20,3 C 76 % 1015,9 hPa 0,0 l/m 5,8 km/h N 15,8 C 20,3 C 16,1 km/h
08.06.2013 10:00 21,7 C 71 % 1015,7 hPa 0,0 l/m 5,9 km/h N 16,1 C 21,6 C 15,7 km/h
08.06.2013 11:00 22,8 C 66 % 1015,5 hPa 0,0 l/m 5,8 km/h N 16,1 C 22,8 C 15,7 km/h
08.06.2013 12:00 23,6 C 65 % 1015,1 hPa 0,0 l/m 3,3 km/h N 16,7 C 23,6 C 11,7 km/h
08.06.2013 13:00 24,8 C 58 % 1014,1 hPa 0,0 l/m 3,6 km/h N 15,8 C 24,8 C 13,7 km/h
08.06.2013 14:00 25,2 C 55 % 1013,4 hPa 0,0 l/m 2,8 km/h N 15,4 C 25,2 C 10,9 km/h
08.06.2013 15:00 25,9 C 55 % 1012,8 hPa 0,0 l/m 2,0 km/h N 16,0 C 25,9 C 8,4 km/h
08.06.2013 16:00 25,8 C 53 % 1012,3 hPa 0,0 l/m 1,2 km/h N 15,5 C 25,8 C 6,8 km/h
08.06.2013 17:00 26,1 C 50 % 1011,8 hPa 0,0 l/m 1,4 km/h N 14,9 C 26,1 C 8,4 km/h
08.06.2013 18:00 25,5 C 53 % 1011,3 hPa 0,0 l/m 1,0 km/h N 15,1 C 25,5 C 6,8 km/h
08.06.2013 19:00 24,5 C 54 % 1011,2 hPa 0,0 l/m 1,0 km/h N 14,4 C 24,5 C 6,0 km/h
08.06.2013 20:00 23,1 C 62 % 1011,2 hPa 0,0 l/m 0,0 km/h N 15,3 C 23,1 C 0,0 km/h
08.06.2013 21:00 19,9 C 72 % 1011,5 hPa 0,0 l/m 0,0 km/h N 14,7 C 19,9 C 0,0 km/h
08.06.2013 22:00 17,9 C 78 % 1011,5 hPa 0,0 l/m 0,1 km/h N 14,0 C 17,9 C 1,6 km/h
08.06.2013 23:00 16,5 C 81 % 1011,4 hPa 0,0 l/m 0,1 km/h N 13,3 C 16,5 C 2,4 km/h
09.06.2013 00:00 15,7 C 83 % 1011,1 hPa 0,0 l/m 0,0 km/h N 12,8 C 15,7 C 0,0 km/h
09.06.2013 01:00 15,1 C 83 % 1010,8 hPa 0,0 l/m 0,0 km/h N 12,2 C 15,1 C 0,8 km/h
09.06.2013 02:00 14,3 C 83 % 1010,6 hPa 0,0 l/m 0,0 km/h N 11,5 C 14,3 C 0,0 km/h
09.06.2013 03:00 13,6 C 83 % 1010,2 hPa 0,0 l/m 0,0 km/h N 10,8 C 13,6 C 0,0 km/h
09.06.2013 04:00 13,0 C 83 % 1010,0 hPa 0,0 l/m 0,0 km/h N 10,2 C 13,0 C 0,0 km/h
09.06.2013 05:00 12,4 C 82 % 1009,9 hPa 0,0 l/m 0,0 km/h N 9,4 C 12,4 C 0,0 km/h
09.06.2013 06:00 12,9 C 80 % 1009,8 hPa 0,0 l/m 0,0 km/h N 9,5 C 12,9 C 0,0 km/h
09.06.2013 07:00 15,0 C 77 % 1009,5 hPa 0,0 l/m 0,2 km/h N 10,9 C 15,0 C 1,6 km/h
09.06.2013 08:00 17,9 C 79 % 1009,3 hPa 0,0 l/m 0,5 km/h N 14,2 C 17,9 C 6,0 km/h
09.06.2013 09:00 20,8 C 75 % 1009,0 hPa 0,0 l/m 3,2 km/h N 16,1 C 20,8 C 10,1 km/h
09.06.2013 10:00 23,4 C 67 % 1008,6 hPa 0,0 l/m 1,9 km/h N 17,0 C 23,4 C 11,7 km/h
09.06.2013 11:00 25,0 C 61 % 1008,3 hPa 0,0 l/m 4,7 km/h N 17,0 C 25,0 C 16,5 km/h
09.06.2013 12:00 26,0 C 58 % 1007,8 hPa 0,0 l/m 5,3 km/h N 17,1 C 25,9 C 20,1 km/h
09.06.2013 13:00 26,9 C 55 % 1007,0 hPa 0,0 l/m 6,6 km/h N 17,0 C 26,8 C 22,9 km/h
09.06.2013 14:00 27,6 C 52 % 1006,2 hPa 0,0 l/m 8,0 km/h N 16,7 C 27,3 C 24,9 km/h
09.06.2013 15:00 27,8 C 47 % 1005,5 hPa 0,0 l/m 10,5 km/h N 15,4 C 27,2 C 26,2 km/h
09.06.2013 16:00 27,8 C 47 % 1004,9 hPa 0,0 l/m 10,9 km/h N 15,4 C 27,1 C 26,5 km/h
09.06.2013 17:00 27,7 C 48 % 1004,3 hPa 0,0 l/m 9,5 km/h N 15,6 C 27,2 C 23,3 km/h
09.06.2013 18:00 26,5 C 52 % 1003,9 hPa 0,0 l/m 5,3 km/h N 15,8 C 26,5 C 19,3 km/h
09.06.2013 19:00 26,0 C 50 % 1003,7 hPa 0,0 l/m 7,3 km/h N 14,8 C 25,8 C 19,7 km/h
09.06.2013 20:00 24,5 C 55 % 1003,6 hPa 0,0 l/m 2,3 km/h N 14,9 C 24,5 C 9,3 km/h
09.06.2013 21:00 22,4 C 64 % 1003,6 hPa 0,0 l/m 0,2 km/h N 15,3 C 22,4 C 3,6 km/h
09.06.2013 22:00 20,1 C 72 % 1003,8 hPa 0,0 l/m 0,0 km/h N 14,9 C 20,1 C 2,0 km/h
09.06.2013 23:00 19,1 C 76 % 1003,7 hPa 0,0 l/m 0,3 km/h N 14,6 C 19,1 C 2,8 km/h
Min-Datum _ 04.06.13 09.06.13 09.06.13 - 05.06.13 - 04.06.13 04.06.13 06.06.13
_ Min-Zeit 06:15 16:45 20:45 - 22:45 - 01:30 02:15 01:15
Minimum _ 9,3 C 46 % 1003,4 hPa - 0,0 km/h - 6,2 C 2,4 C 0,0 km/h
Max-Datum _ 09.06.13 04.06.13 06.06.13 03.06.13 03.06.13 - 09.06.13 09.06.13 04.06.13
_ Max-Zeit 15:00 06:30 12:30 18:15 16:00 - 12:30 15:00 02:15
Maximum _ 28,1 C 84 % 1020,1 hPa 0,8 l/m 22,4 km/h
N
- 17,7 C 27,7 C 51,5 km/h
N
Durchschnitt _ 15,8 C 76 % 1015,3 hPa #5,2 l/m 6,9 km/h N 11,3 C 14,4 C 18,4 km/h